Time;durP1;ratioP1;P1;durP2;ratioP2;P2;SDS_P1;SDS_P2;PMS_P1;PMS_P2;Temp;Humidity;BMP_temperature;BMP_pressure;BME280_temperature;BME280_humidity;BME280_pressure;Samples;Min_cycle;Max_cycle;Signal;HPM_P1;HPM_P2
2022/05/29 00:01:47;;;;;;;1.83;1.30;;;;;;;;;;4920422;29;20048;-71
2022/05/29 00:04:13;;;;;;;2.15;1.02;;;;;;;;;;4920227;29;20190;-71
2022/05/29 00:06:41;;;;;;;3.05;1.40;;;;;;;;;;4920370;29;20476;-71
2022/05/29 00:09:08;;;;;;;2.85;1.00;;;;;;;;;;4919825;29;20047;-71
2022/05/29 00:11:34;;;;;;;2.25;1.50;;;;;;;;;;4920270;29;20051;-71
2022/05/29 00:14:00;;;;;;;1.52;1.23;;;;;;;;;;4920234;29;20067;-71
2022/05/29 00:16:30;;;;;;;1.58;1.30;;;;;;;;;;4919771;29;20036;-71
2022/05/29 00:18:56;;;;;;;1.60;1.20;;;;;;;;;;4919577;29;20072;-71
2022/05/29 00:21:23;;;;;;;2.30;1.20;;;;;;;;;;4919880;29;20078;-71
2022/05/29 00:23:49;;;;;;;3.17;1.50;;;;;;;;;;4919445;29;20132;-71
2022/05/29 00:26:16;;;;;;;4.53;1.55;;;;;;;;;;4919417;29;20051;-71
2022/05/29 00:28:43;;;;;;;2.67;1.65;;;;;;;;;;4919860;29;20056;-71
2022/05/29 00:31:09;;;;;;;1.42;1.17;;;;;;;;;;4919612;29;20570;-71
2022/05/29 00:33:35;;;;;;;2.17;1.33;;;;;;;;;;4919357;29;20043;-71
2022/05/29 00:36:02;;;;;;;3.92;1.60;;;;;;;;;;4919273;29;20492;-71
2022/05/29 00:38:28;;;;;;;2.75;1.45;;;;;;;;;;4919260;29;20415;-71
2022/05/29 00:41:02;;;;;;;4.03;1.20;;;;;;;;;;4919882;29;20107;-71
2022/05/29 00:43:28;;;;;;;2.30;1.45;;;;;;;;;;4919539;29;20052;-71
2022/05/29 00:45:56;;;;;;;1.88;1.30;;;;;;;;;;4919186;29;20100;-71
2022/05/29 00:48:23;;;;;;;3.47;1.38;;;;;;;;;;4919124;29;20550;-71
2022/05/29 00:50:50;;;;;;;2.40;1.10;;;;;;;;;;4919186;29;20032;-71
2022/05/29 00:53:17;;;;;;;2.03;1.38;;;;;;;;;;4918937;29;20047;-71
2022/05/29 00:55:46;;;;;;;2.13;1.05;;;;;;;;;;4918874;29;20043;-71
2022/05/29 00:58:12;;;;;;;4.05;1.30;;;;;;;;;;4919073;29;20058;-71
2022/05/29 01:00:39;;;;;;;1.60;1.42;;;;;;;;;;4919089;29;20100;-71
2022/05/29 01:03:05;;;;;;;1.95;1.50;;;;;;;;;;4918600;29;20044;-71
2022/05/29 01:05:33;;;;;;;1.40;1.15;;;;;;;;;;4919164;29;20115;-71
2022/05/29 01:08:18;;;;;;;2.70;1.00;;;;;;;;;;4919062;29;20403;-71
2022/05/29 01:10:52;;;;;;;4.10;1.20;;;;;;;;;;4918561;29;20119;-71
2022/05/29 01:13:21;;;;;;;4.00;1.42;;;;;;;;;;4918766;29;20087;-71
2022/05/29 01:15:50;;;;;;;4.40;1.38;;;;;;;;;;4918837;29;20040;-71
2022/05/29 01:18:16;;;;;;;1.40;1.10;;;;;;;;;;4918304;29;20052;-71
2022/05/29 01:21:01;;;;;;;2.13;1.60;;;;;;;;;;4919306;29;20059;-71
2022/05/29 01:23:45;;;;;;;1.23;1.13;;;;;;;;;;4919022;29;20036;-71
2022/05/29 01:26:20;;;;;;;1.95;1.33;;;;;;;;;;4919249;29;20040;-71
2022/05/29 01:28:46;;;;;;;1.75;1.10;;;;;;;;;;4919009;29;20056;-71
2022/05/29 01:31:12;;;;;;;2.17;1.20;;;;;;;;;;4918918;29;20094;-71
2022/05/29 01:33:45;;;;;;;4.20;1.58;;;;;;;;;;4918421;29;20102;-71
2022/05/29 01:36:30;;;;;;;2.63;1.23;;;;;;;;;;4918817;29;20044;-71
2022/05/29 01:39:01;;;;;;;1.25;1.15;;;;;;;;;;4918866;29;20484;-71
2022/05/29 01:41:27;;;;;;;1.98;1.33;;;;;;;;;;4918640;29;20528;-71
2022/05/29 01:44:03;;;;;;;3.58;1.58;;;;;;;;;;4918447;29;20052;-71
2022/05/29 01:46:34;;;;;;;1.50;1.20;;;;;;;;;;4918699;29;20032;-71
2022/05/29 01:49:20;;;;;;;3.53;1.38;;;;;;;;;;4918619;29;20056;-71
2022/05/29 01:51:49;;;;;;;1.33;1.15;;;;;;;;;;4918664;29;20052;-71
2022/05/29 01:54:21;;;;;;;2.15;1.00;;;;;;;;;;4918572;29;20075;-71
2022/05/29 01:56:50;;;;;;;1.95;1.10;;;;;;;;;;4918498;29;20044;-71
2022/05/29 01:59:19;;;;;;;2.17;0.95;;;;;;;;;;4918250;29;20059;-71
2022/05/29 02:01:48;;;;;;;3.40;1.23;;;;;;;;;;4918261;29;20048;-71
2022/05/29 02:04:17;;;;;;;2.67;1.40;;;;;;;;;;4925071;29;20499;-71
2022/05/29 02:09:34;;;;;;;1.15;1.00;;;;;;;;;;4935742;29;20047;-71
2022/05/29 02:12:01;;;;;;;2.45;1.30;;;;;;;;;;4936498;29;20082;-71
2022/05/29 02:14:33;;;;;;;1.02;1.00;;;;;;;;;;4937105;29;20050;-71
2022/05/29 02:17:04;;;;;;;2.92;0.98;;;;;;;;;;4937542;29;20191;-71
2022/05/29 02:19:33;;;;;;;3.90;1.13;;;;;;;;;;4937164;29;20126;-71
2022/05/29 02:21:59;;;;;;;1.50;1.10;;;;;;;;;;4936715;29;20495;-71
2022/05/29 02:24:27;;;;;;;3.55;1.10;;;;;;;;;;4936998;29;20051;-71
2022/05/29 02:27:02;;;;;;;1.45;1.10;;;;;;;;;;4936984;29;20040;-71
2022/05/29 02:29:28;;;;;;;2.33;1.10;;;;;;;;;;4937286;29;20115;-71
2022/05/29 02:32:21;;;;;;;1.50;1.10;;;;;;;;;;4936667;29;20062;-71
2022/05/29 02:34:53;;;;;;;2.95;1.80;;;;;;;;;;4934201;29;20055;-71
2022/05/29 02:37:28;;;;;;;2.47;1.17;;;;;;;;;;4936872;29;20048;-71
2022/05/29 02:39:58;;;;;;;2.28;1.08;;;;;;;;;;4937067;29;20058;-71
2022/05/29 02:42:35;;;;;;;1.33;1.13;;;;;;;;;;4936876;29;20047;-71
2022/05/29 02:45:05;;;;;;;1.38;1.02;;;;;;;;;;4937176;29;20578;-71
2022/05/29 02:47:38;;;;;;;3.17;1.35;;;;;;;;;;4936444;29;20571;-71
2022/05/29 02:50:09;;;;;;;2.42;1.30;;;;;;;;;;4936548;29;20103;-71
2022/05/29 02:52:36;;;;;;;3.40;1.35;;;;;;;;;;4936884;29;20043;-71
2022/05/29 02:55:02;;;;;;;1.52;1.10;;;;;;;;;;4937037;29;20044;-71
2022/05/29 02:57:28;;;;;;;3.15;1.08;;;;;;;;;;4936691;29;20052;-71
2022/05/29 02:59:58;;;;;;;1.83;1.17;;;;;;;;;;4936983;29;20503;-71
2022/05/29 03:02:43;;;;;;;3.00;1.00;;;;;;;;;;4936823;29;20078;-71
2022/05/29 03:05:18;;;;;;;2.40;1.20;;;;;;;;;;4936414;29;20044;-71
2022/05/29 03:08:03;;;;;;;4.28;1.10;;;;;;;;;;4937220;29;20063;-71
2022/05/29 03:10:58;;;;;;;2.75;1.27;;;;;;;;;;4940101;29;20043;-71
2022/05/29 03:13:30;;;;;;;1.42;1.05;;;;;;;;;;4927307;29;20059;-71
2022/05/29 03:16:05;;;;;;;2.47;1.10;;;;;;;;;;4939743;29;20394;-71
2022/05/29 03:18:34;;;;;;;3.70;1.20;;;;;;;;;;4939598;29;20070;-71
2022/05/29 03:21:05;;;;;;;1.95;1.23;;;;;;;;;;4939926;29;20507;-71
2022/05/29 03:23:31;;;;;;;1.27;1.13;;;;;;;;;;4939615;29;20416;-71
2022/05/29 03:26:03;;;;;;;2.90;1.30;;;;;;;;;;4940017;29;20079;-71
2022/05/29 03:29:01;;;;;;;1.35;1.20;;;;;;;;;;4939739;29;20043;-71
2022/05/29 03:31:29;;;;;;;1.60;1.15;;;;;;;;;;4907982;29;20043;-71
2022/05/29 03:33:56;;;;;;;4.93;1.33;;;;;;;;;;4939527;29;20047;-71
2022/05/29 03:36:25;;;;;;;1.25;0.90;;;;;;;;;;4939854;29;20070;-70
2022/05/29 03:38:51;;;;;;;4.40;1.20;;;;;;;;;;4939455;29;20052;-71
2022/05/29 03:41:39;;;;;;;1.73;1.25;;;;;;;;;;4939795;29;20040;-71
2022/05/29 03:44:06;;;;;;;4.10;1.35;;;;;;;;;;4939910;29;20048;-71
2022/05/29 03:46:32;;;;;;;2.67;1.08;;;;;;;;;;4939613;29;20031;-71
2022/05/29 03:48:58;;;;;;;2.10;1.00;;;;;;;;;;4939307;29;20051;-71
2022/05/29 03:51:24;;;;;;;5.65;1.63;;;;;;;;;;4939333;29;20086;-71
2022/05/29 03:53:50;;;;;;;1.38;0.82;;;;;;;;;;4939326;29;20391;-71
2022/05/29 03:56:17;;;;;;;3.63;1.20;;;;;;;;;;4939221;29;20460;-70
2022/05/29 03:58:43;;;;;;;2.33;1.15;;;;;;;;;;4939355;29;20095;-70
2022/05/29 04:01:09;;;;;;;2.05;1.00;;;;;;;;;;4939460;29;20194;-71
2022/05/29 04:03:36;;;;;;;2.85;1.23;;;;;;;;;;4938981;29;20126;-71
2022/05/29 04:06:02;;;;;;;3.53;1.10;;;;;;;;;;4939371;29;20040;-71
2022/05/29 04:13:58;;;;;;;2.00;1.10;;;;;;;;;;4938740;29;20051;-71
2022/05/29 04:16:24;;;;;;;3.83;1.23;;;;;;;;;;4939180;29;20040;-71
2022/05/29 04:18:50;;;;;;;2.05;1.27;;;;;;;;;;4938283;29;20069;-71
2022/05/29 04:21:16;;;;;;;3.40;1.25;;;;;;;;;;4937776;29;20070;-71
2022/05/29 04:23:42;;;;;;;3.85;1.20;;;;;;;;;;4938725;29;20094;-71
2022/05/29 04:26:08;;;;;;;5.75;1.40;;;;;;;;;;4938696;29;20559;-71
2022/05/29 04:28:35;;;;;;;2.13;1.10;;;;;;;;;;4938867;29;20055;-71
2022/05/29 04:31:01;;;;;;;5.30;1.13;;;;;;;;;;4938610;29;20050;-71
2022/05/29 04:33:27;;;;;;;3.90;1.45;;;;;;;;;;4938593;29;20119;-71
2022/05/29 04:35:54;;;;;;;3.92;1.10;;;;;;;;;;4938788;29;20067;-71
2022/05/29 04:38:23;;;;;;;5.75;1.13;;;;;;;;;;4938090;29;20052;-71
2022/05/29 04:40:49;;;;;;;2.65;1.33;;;;;;;;;;4938140;29;20134;-71
2022/05/29 04:43:15;;;;;;;3.13;1.42;;;;;;;;;;4938374;29;20119;-71
2022/05/29 04:45:43;;;;;;;7.07;1.27;;;;;;;;;;4938237;29;20094;-71
2022/05/29 04:48:10;;;;;;;3.55;1.20;;;;;;;;;;4938535;29;20121;-71
2022/05/29 04:50:36;;;;;;;3.03;1.30;;;;;;;;;;4938460;29;20047;-71
2022/05/29 04:53:03;;;;;;;2.83;1.23;;;;;;;;;;4938382;29;20042;-71
2022/05/29 04:55:29;;;;;;;4.10;1.13;;;;;;;;;;4937951;29;20054;-71
2022/05/29 04:57:55;;;;;;;5.45;1.30;;;;;;;;;;4938442;29;20127;-71
2022/05/29 05:00:21;;;;;;;2.78;1.05;;;;;;;;;;4938124;29;20106;-70
2022/05/29 05:02:48;;;;;;;6.53;1.33;;;;;;;;;;4937880;29;20121;-71
2022/05/29 05:05:14;;;;;;;4.55;1.38;;;;;;;;;;4937971;29;20054;-71
2022/05/29 05:07:40;;;;;;;5.65;1.65;;;;;;;;;;4938056;29;20051;-70
2022/05/29 05:10:11;;;;;;;4.20;1.60;;;;;;;;;;4937939;29;20070;-70
2022/05/29 05:12:37;;;;;;;3.15;1.10;;;;;;;;;;4938050;29;20040;-71
2022/05/29 05:15:03;;;;;;;1.35;0.98;;;;;;;;;;4937578;29;20039;-71
2022/05/29 05:17:29;;;;;;;5.35;1.58;;;;;;;;;;4937759;29;20048;-71
2022/05/29 05:19:55;;;;;;;2.17;1.20;;;;;;;;;;4937895;29;20127;-71
2022/05/29 05:22:22;;;;;;;3.67;1.55;;;;;;;;;;4937997;29;20039;-71
2022/05/29 05:24:48;;;;;;;7.72;1.42;;;;;;;;;;4937902;29;20035;-71
2022/05/29 05:27:15;;;;;;;4.28;1.13;;;;;;;;;;4937655;29;20054;-71
2022/05/29 05:29:41;;;;;;;3.17;1.30;;;;;;;;;;4938215;29;20075;-71
2022/05/29 05:32:08;;;;;;;2.92;1.13;;;;;;;;;;4937247;29;20071;-71
2022/05/29 05:34:34;;;;;;;2.13;1.10;;;;;;;;;;4937502;29;20098;-71
2022/05/29 05:37:00;;;;;;;4.70;1.38;;;;;;;;;;4938055;29;20040;-71
2022/05/29 05:39:26;;;;;;;2.72;1.00;;;;;;;;;;4938013;29;20055;-71
2022/05/29 05:41:52;;;;;;;4.95;1.20;;;;;;;;;;4937482;29;20146;-71
2022/05/29 05:44:18;;;;;;;2.40;1.05;;;;;;;;;;4937686;29;20049;-71
2022/05/29 05:46:45;;;;;;;8.43;1.40;;;;;;;;;;4937657;29;20053;-71
2022/05/29 05:49:12;;;;;;;5.15;1.30;;;;;;;;;;4937564;29;20119;-71
2022/05/29 05:51:39;;;;;;;2.28;1.15;;;;;;;;;;4937316;29;20032;-71
2022/05/29 05:54:05;;;;;;;3.25;1.30;;;;;;;;;;4937364;29;20094;-71
2022/05/29 05:56:31;;;;;;;5.25;1.85;;;;;;;;;;4937568;29;20070;-71
2022/05/29 05:58:57;;;;;;;1.75;0.85;;;;;;;;;;4937602;29;20058;-71
2022/05/29 06:01:23;;;;;;;3.15;1.20;;;;;;;;;;4937299;29;20040;-71
2022/05/29 06:03:50;;;;;;;3.35;1.20;;;;;;;;;;4937357;29;20047;-70
2022/05/29 06:06:16;;;;;;;6.38;1.30;;;;;;;;;;4937300;29;20047;-71
2022/05/29 06:08:42;;;;;;;2.65;0.98;;;;;;;;;;4937384;29;20083;-71
2022/05/29 06:11:08;;;;;;;3.38;1.58;;;;;;;;;;4937131;29;20488;-71
2022/05/29 06:13:35;;;;;;;4.25;1.00;;;;;;;;;;4937198;29;20051;-71
2022/05/29 06:16:02;;;;;;;5.93;1.40;;;;;;;;;;4937069;29;20447;-71
2022/05/29 06:18:28;;;;;;;4.95;1.48;;;;;;;;;;4936991;29;20055;-71
2022/05/29 06:20:58;;;;;;;1.80;1.13;;;;;;;;;;4937063;29;20048;-71
2022/05/29 06:23:24;;;;;;;3.00;1.17;;;;;;;;;;4937384;29;20056;-71
2022/05/29 06:25:50;;;;;;;4.75;1.00;;;;;;;;;;4937068;29;20040;-72
2022/05/29 06:28:16;;;;;;;1.98;1.33;;;;;;;;;;4937302;29;20043;-72
2022/05/29 06:30:44;;;;;;;4.70;1.27;;;;;;;;;;4937002;29;20048;-71
2022/05/29 06:33:11;;;;;;;3.97;1.08;;;;;;;;;;4936832;29;20126;-72
2022/05/29 06:35:38;;;;;;;3.63;1.20;;;;;;;;;;4937239;29;20043;-72
2022/05/29 06:38:04;;;;;;;2.83;1.60;;;;;;;;;;4936830;29;20059;-72
2022/05/29 06:40:30;;;;;;;2.22;1.13;;;;;;;;;;4936944;29;20052;-72
2022/05/29 06:42:56;;;;;;;3.10;1.02;;;;;;;;;;4937818;29;20044;-71
2022/05/29 06:45:22;;;;;;;1.88;1.15;;;;;;;;;;4940839;29;20043;-71
2022/05/29 06:47:48;;;;;;;7.40;1.17;;;;;;;;;;4940953;29;20490;-71
2022/05/29 06:50:14;;;;;;;3.15;1.08;;;;;;;;;;4940760;29;20047;-71
2022/05/29 06:52:41;;;;;;;4.22;1.40;;;;;;;;;;4940452;29;20048;-71
2022/05/29 06:55:08;;;;;;;2.25;1.10;;;;;;;;;;4940682;29;20047;-71
2022/05/29 06:57:37;;;;;;;8.13;1.20;;;;;;;;;;4940374;29;20083;-71
2022/05/29 07:08:25;;;;;;;1.63;1.08;;;;;;;;;;4939953;29;20047;-71
2022/05/29 07:10:52;;;;;;;2.28;1.15;;;;;;;;;;4941180;29;20068;-71
2022/05/29 07:13:18;;;;;;;2.97;0.95;;;;;;;;;;4940028;29;20090;-71
2022/05/29 07:15:44;;;;;;;2.53;1.20;;;;;;;;;;4940293;29;20083;-71
2022/05/29 07:18:10;;;;;;;5.28;1.60;;;;;;;;;;4940113;29;20048;-71
2022/05/29 07:20:36;;;;;;;3.25;1.25;;;;;;;;;;4939697;29;20087;-71
2022/05/29 07:23:02;;;;;;;2.58;1.23;;;;;;;;;;4939765;29;20039;-71
2022/05/29 07:25:29;;;;;;;4.88;1.35;;;;;;;;;;4939061;29;20040;-71
2022/05/29 07:27:55;;;;;;;4.25;1.42;;;;;;;;;;4931875;29;20041;-71
2022/05/29 07:30:21;;;;;;;4.47;1.13;;;;;;;;;;4926977;29;20071;-71
2022/05/29 07:32:48;;;;;;;4.28;1.05;;;;;;;;;;4926965;29;20040;-71
2022/05/29 07:35:16;;;;;;;4.00;1.30;;;;;;;;;;4914373;29;20401;-69
2022/05/29 07:37:43;;;;;;;2.05;1.08;;;;;;;;;;4924936;29;20075;-71
2022/05/29 07:40:09;;;;;;;1.75;1.00;;;;;;;;;;4929458;29;20055;-71
2022/05/29 07:45:20;;;;;;;3.05;1.08;;;;;;;;;;4930117;29;20467;-71
2022/05/29 07:47:46;;;;;;;3.92;1.27;;;;;;;;;;4926471;29;20059;-71
2022/05/29 07:50:15;;;;;;;4.47;0.80;;;;;;;;;;4927416;29;20055;-71
2022/05/29 07:52:41;;;;;;;4.07;1.42;;;;;;;;;;4927869;29;20046;-71
2022/05/29 07:55:07;;;;;;;5.38;1.00;;;;;;;;;;4929823;29;20051;-72
2022/05/29 07:57:34;;;;;;;2.85;1.30;;;;;;;;;;4930627;29;20048;-72
2022/05/29 08:00:00;;;;;;;4.70;1.38;;;;;;;;;;4930450;29;20504;-73
2022/05/29 08:02:26;;;;;;;2.83;1.10;;;;;;;;;;4931770;29;20521;-71
2022/05/29 08:04:53;;;;;;;6.15;1.27;;;;;;;;;;4930563;29;20122;-71
2022/05/29 08:07:21;;;;;;;2.30;1.00;;;;;;;;;;4926285;29;20048;-71
2022/05/29 08:09:47;;;;;;;4.20;1.10;;;;;;;;;;4935248;29;20051;-71
2022/05/29 08:12:13;;;;;;;3.78;1.38;;;;;;;;;;4935457;29;20051;-71
2022/05/29 08:14:39;;;;;;;2.30;1.00;;;;;;;;;;4936551;29;20050;-71
2022/05/29 08:17:05;;;;;;;3.75;1.30;;;;;;;;;;4923856;29;20052;-70
2022/05/29 08:19:34;;;;;;;5.22;1.50;;;;;;;;;;4902302;29;20061;-70
2022/05/29 08:22:01;;;;;;;3.73;1.17;;;;;;;;;;4909188;29;20043;-70
2022/05/29 08:32:42;;;;;;;2.33;1.00;;;;;;;;;;4918179;29;20043;-70
2022/05/29 08:35:08;;;;;;;4.10;1.00;;;;;;;;;;4918131;29;20075;-74
2022/05/29 08:37:34;;;;;;;2.30;1.35;;;;;;;;;;4899873;29;20064;-73
2022/05/29 08:40:01;;;;;;;2.75;0.93;;;;;;;;;;4900014;29;20443;-73
2022/05/29 08:42:29;;;;;;;5.13;1.13;;;;;;;;;;4904409;29;20480;-73
2022/05/29 08:44:55;;;;;;;3.80;1.20;;;;;;;;;;4919788;29;20129;-74
2022/05/29 08:47:27;;;;;;;6.43;1.30;;;;;;;;;;4912630;29;20041;-74
2022/05/29 08:49:53;;;;;;;4.60;1.20;;;;;;;;;;4900803;29;20052;-74
2022/05/29 08:52:28;;;;;;;1.77;0.95;;;;;;;;;;4899399;29;20040;-73
2022/05/29 08:54:57;;;;;;;3.10;0.70;;;;;;;;;;4900706;29;20176;-73
2022/05/29 08:57:42;;;;;;;4.72;1.13;;;;;;;;;;4900807;29;20040;-73
2022/05/29 09:00:29;;;;;;;2.55;0.90;;;;;;;;;;4906621;29;20128;-74
2022/05/29 09:03:04;;;;;;;2.50;1.17;;;;;;;;;;4880276;29;20500;-74
2022/05/29 09:05:40;;;;;;;1.63;0.93;;;;;;;;;;4900303;29;20052;-73
2022/05/29 09:08:12;;;;;;;3.42;1.38;;;;;;;;;;4900165;29;20074;-73
2022/05/29 09:10:45;;;;;;;3.88;1.48;;;;;;;;;;4900596;29;20048;-73
2022/05/29 09:13:23;;;;;;;2.90;1.00;;;;;;;;;;4900595;29;20040;-77
2022/05/29 09:15:51;;;;;;;3.28;1.00;;;;;;;;;;4900581;29;20100;-76
2022/05/29 09:18:25;;;;;;;3.10;1.08;;;;;;;;;;4902654;29;20127;-77
2022/05/29 09:20:54;;;;;;;6.57;1.25;;;;;;;;;;4924433;29;20042;-77
2022/05/29 09:23:29;;;;;;;5.95;1.30;;;;;;;;;;4938021;29;20044;-77
2022/05/29 09:25:56;;;;;;;2.33;1.05;;;;;;;;;;4935594;29;20457;-75
2022/05/29 09:28:27;;;;;;;2.95;0.88;;;;;;;;;;4930886;29;20083;-77
2022/05/29 09:30:54;;;;;;;4.80;1.48;;;;;;;;;;4920234;29;20036;-77
2022/05/29 09:33:28;;;;;;;3.67;0.90;;;;;;;;;;4928938;29;20103;-77
2022/05/29 09:35:54;;;;;;;3.63;0.90;;;;;;;;;;4937195;29;20122;-77
2022/05/29 09:38:23;;;;;;;4.28;1.08;;;;;;;;;;4937094;29;20055;-77
2022/05/29 09:41:07;;;;;;;3.47;1.00;;;;;;;;;;4936597;29;20507;-73
2022/05/29 09:43:33;;;;;;;22.35;14.10;;;;;;;;;;4937887;29;20538;-72
2022/05/29 09:46:18;;;;;;;166.63;125.60;;;;;;;;;;4937410;29;20044;-72
2022/05/29 09:51:38;;;;;;;19.67;17.75;;;;;;;;;;4924461;29;20043;-72
2022/05/29 09:54:06;;;;;;;26.65;24.08;;;;;;;;;;4935988;29;20057;-72
2022/05/29 09:56:33;;;;;;;32.78;29.42;;;;;;;;;;4937088;29;20112;-72
2022/05/29 09:58:59;;;;;;;32.53;29.60;;;;;;;;;;4931981;29;20126;-72
2022/05/29 10:01:27;;;;;;;23.27;20.90;;;;;;;;;;4926938;29;20534;-72
2022/05/29 10:03:55;;;;;;;11.30;9.73;;;;;;;;;;4915742;29;20372;-72
2022/05/29 10:06:34;;;;;;;74.78;68.45;;;;;;;;;;4923355;29;20040;-73
2022/05/29 10:09:12;;;;;;;68.00;62.13;;;;;;;;;;4930611;29;20047;-72
2022/05/29 10:11:39;;;;;;;6.15;4.78;;;;;;;;;;4928833;29;20051;-72
2022/05/29 10:14:26;;;;;;;12.60;11.32;;;;;;;;;;4929907;29;20064;-73
2022/05/29 10:16:54;;;;;;;4.03;3.63;;;;;;;;;;4909601;29;20091;-72
2022/05/29 10:20:01;;;;;;;38.03;34.30;;;;;;;;;;4932978;29;20114;-72
2022/05/29 10:22:32;;;;;;;50.33;45.80;;;;;;;;;;4875750;29;20037;-73
2022/05/29 10:25:05;;;;;;;;;;;;;;;;;;4877857;29;20067;-73
2022/05/29 10:27:34;;;;;;;5.13;4.60;;;;;;;;;;4899096;29;20367;-73
2022/05/29 10:30:03;;;;;;;25.13;22.50;;;;;;;;;;4918366;29;20078;-73
2022/05/29 10:32:31;;;;;;;17.35;15.55;;;;;;;;;;4923481;29;20104;-72
2022/05/29 10:35:06;;;;;;;18.73;11.23;;;;;;;;;;4931728;29;20082;-72
2022/05/29 10:37:37;;;;;;;28.70;17.13;;;;;;;;;;4931090;29;20044;-72
2022/05/29 10:40:12;;;;;;;62.65;50.47;;;;;;;;;;4927085;29;20559;-72
2022/05/29 10:42:46;;;;;;;19.40;17.45;;;;;;;;;;4934004;29;20043;-72
2022/05/29 10:45:20;;;;;;;10.25;8.18;;;;;;;;;;4935650;29;20115;-73
2022/05/29 10:47:53;;;;;;;45.28;36.85;;;;;;;;;;4932586;29;20126;-74
2022/05/29 10:50:22;;;;;;;41.95;34.58;;;;;;;;;;4924395;29;20048;-72
2022/05/29 10:53:06;;;;;;;6.22;5.15;;;;;;;;;;4929072;29;20606;-73
2022/05/29 10:55:51;;;;;;;50.78;46.55;;;;;;;;;;4940548;29;20118;-73
2022/05/29 10:58:32;;;;;;;55.08;46.00;;;;;;;;;;4930840;29;20047;-73
2022/05/29 11:04:05;;;;;;;446.17;376.00;;;;;;;;;;4936913;29;20026;-72
2022/05/29 11:06:56;;;;;;;66.60;55.92;;;;;;;;;;4938326;29;20079;-73
2022/05/29 11:09:22;;;;;;;;;;;;;;;;;;4939911;29;20075;-72
2022/05/29 11:12:06;;;;;;;942.85;699.45;;;;;;;;;;4937441;29;19923;-72
2022/05/29 11:14:55;;;;;;;432.63;350.35;;;;;;;;;;4937174;29;20045;-73
2022/05/29 11:17:30;;;;;;;597.10;503.95;;;;;;;;;;4931256;29;20044;-73
2022/05/29 11:20:07;;;;;;;553.03;492.20;;;;;;;;;;4927327;29;20083;-73
2022/05/29 11:22:52;;;;;;;1271.50;833.75;;;;;;;;;;4935583;29;20046;-72
2022/05/29 11:25:27;;;;;;;231.75;172.32;;;;;;;;;;4939175;29;20079;-73
2022/05/29 11:28:08;;;;;;;574.25;456.30;;;;;;;;;;4932844;29;20062;-73
2022/05/29 11:30:49;;;;;;;178.40;122.57;;;;;;;;;;4938989;29;20074;-73
2022/05/29 11:33:19;;;;;;;635.53;478.42;;;;;;;;;;4939524;29;20036;-72
2022/05/29 11:36:05;;;;;;;486.77;363.13;;;;;;;;;;4938699;29;20043;-73
2022/05/29 11:39:00;;;;;;;352.17;249.23;;;;;;;;;;4937134;29;20134;-73
2022/05/29 11:41:26;;;;;;;44.50;27.67;;;;;;;;;;4939793;29;20047;-73
2022/05/29 11:43:59;;;;;;;322.65;222.90;;;;;;;;;;4938778;29;20051;-72
2022/05/29 11:52:23;;;;;;;376.15;236.23;;;;;;;;;;4934759;29;20147;-73
2022/05/29 11:55:01;;;;;;;58.28;41.95;;;;;;;;;;4938484;29;20050;-73
2022/05/29 11:57:35;;;;;;;16.90;11.52;;;;;;;;;;4931027;29;20119;-73
2022/05/29 12:00:07;;;;;;;5.93;5.30;;;;;;;;;;4926544;29;20496;-73
2022/05/29 12:02:41;;;;;;;7.18;3.70;;;;;;;;;;4934985;29;20048;-73
2022/05/29 12:05:25;;;;;;;2.90;2.05;;;;;;;;;;4926714;29;20115;-73
2022/05/29 12:07:58;;;;;;;2.55;1.50;;;;;;;;;;4934644;29;20544;-73
2022/05/29 12:10:26;;;;;;;2.33;1.30;;;;;;;;;;4938144;29;20507;-73
2022/05/29 12:13:03;;;;;;;5.30;2.92;;;;;;;;;;4937315;29;20044;-74
2022/05/29 12:15:33;;;;;;;7.18;1.10;;;;;;;;;;4930435;29;20051;-73
2022/05/29 12:18:04;;;;;;;3.65;1.10;;;;;;;;;;4919153;29;20131;-73
2022/05/29 12:20:40;;;;;;;2.30;1.02;;;;;;;;;;4917201;29;20095;-73
2022/05/29 12:23:25;;;;;;;0.70;0.65;;;;;;;;;;4919070;29;20071;-73
2022/05/29 12:26:06;;;;;;;2.03;1.20;;;;;;;;;;4918587;29;20048;-73
2022/05/29 12:28:50;;;;;;;1.92;1.00;;;;;;;;;;4916709;29;20056;-73
2022/05/29 12:31:22;;;;;;;2.05;0.93;;;;;;;;;;4909236;29;20120;-73
2022/05/29 12:33:48;;;;;;;2.60;1.10;;;;;;;;;;4919573;29;20051;-73
2022/05/29 12:36:32;;;;;;;3.67;1.55;;;;;;;;;;4918605;29;20044;-73
2022/05/29 12:39:04;;;;;;;3.17;1.00;;;;;;;;;;4918195;29;20048;-73
2022/05/29 12:41:30;;;;;;;2.22;0.98;;;;;;;;;;4916136;29;20051;-73
2022/05/29 12:43:56;;;;;;;3.35;0.90;;;;;;;;;;4918340;29;20076;-73
2022/05/29 12:46:23;;;;;;;4.72;2.92;;;;;;;;;;4917923;29;20040;-72
2022/05/29 12:49:21;;;;;;;2.70;2.03;;;;;;;;;;4917958;29;20050;-73
2022/05/29 12:52:06;;;;;;;7.75;4.35;;;;;;;;;;4886249;29;20495;-73
2022/05/29 12:54:41;;;;;;;3.83;1.40;;;;;;;;;;4918676;29;20040;-73
2022/05/29 12:57:19;;;;;;;3.63;1.48;;;;;;;;;;4918417;29;20067;-73
2022/05/29 12:59:45;;;;;;;5.93;2.50;;;;;;;;;;4918490;29;20055;-73
2022/05/29 13:02:11;;;;;;;2.00;1.23;;;;;;;;;;4918903;29;20044;-73
2022/05/29 13:04:56;;;;;;;5.10;1.27;;;;;;;;;;4916047;29;20055;-74
2022/05/29 13:07:24;;;;;;;4.75;0.93;;;;;;;;;;4913778;29;20528;-74
2022/05/29 13:09:50;;;;;;;3.47;1.10;;;;;;;;;;4912619;29;20412;-73
2022/05/29 13:12:33;;;;;;;5.28;1.10;;;;;;;;;;4901495;29;20045;-72
2022/05/29 13:15:02;;;;;;;3.30;0.82;;;;;;;;;;4902956;29;20543;-73
2022/05/29 13:17:32;;;;;;;5.97;1.08;;;;;;;;;;4902589;29;20040;-73
2022/05/29 13:19:58;;;;;;;5.80;0.75;;;;;;;;;;4925919;29;20055;-72
2022/05/29 13:22:43;;;;;;;3.90;0.90;;;;;;;;;;4932028;29;20123;-73
2022/05/29 13:25:09;;;;;;;4.78;1.05;;;;;;;;;;4936318;29;20039;-72
2022/05/29 13:27:35;;;;;;;5.68;0.90;;;;;;;;;;4936689;29;20051;-72
2022/05/29 13:30:03;;;;;;;3.25;1.00;;;;;;;;;;4935943;29;20131;-73
2022/05/29 13:32:31;;;;;;;2.75;1.00;;;;;;;;;;4936570;29;20411;-73
2022/05/29 13:35:03;;;;;;;2.20;0.80;;;;;;;;;;4936488;29;20047;-73
2022/05/29 13:37:47;;;;;;;2.83;1.08;;;;;;;;;;4935929;29;20039;-73
2022/05/29 13:40:32;;;;;;;2.20;0.88;;;;;;;;;;4928890;29;20047;-72
2022/05/29 13:43:20;;;;;;;3.50;0.93;;;;;;;;;;4916274;29;20176;-73
2022/05/29 13:45:53;;;;;;;3.38;0.90;;;;;;;;;;4908530;29;20460;-73
2022/05/29 13:48:29;;;;;;;7.18;0.90;;;;;;;;;;4917594;29;20063;-72
2022/05/29 13:50:56;;;;;;;2.90;0.80;;;;;;;;;;4927899;29;20043;-73
2022/05/29 13:53:42;;;;;;;3.30;0.80;;;;;;;;;;4918561;29;20047;-73
2022/05/29 13:56:14;;;;;;;3.03;0.85;;;;;;;;;;4906256;29;20043;-73
2022/05/29 14:04:36;;;;;;;6.85;1.23;;;;;;;;;;4921947;29;20051;-72
2022/05/29 14:07:08;;;;;;;3.65;1.10;;;;;;;;;;4916878;29;20040;-73
2022/05/29 14:09:34;;;;;;;3.22;0.90;;;;;;;;;;4927459;29;20077;-73
2022/05/29 14:12:05;;;;;;;3.83;1.08;;;;;;;;;;4918678;29;20046;-81
2022/05/29 14:14:34;;;;;;;3.90;1.13;;;;;;;;;;4913578;29;20126;-74
2022/05/29 14:17:08;;;;;;;5.43;1.00;;;;;;;;;;4918357;29;20084;-74
2022/05/29 14:19:54;;;;;;;3.40;0.85;;;;;;;;;;4919277;29;20060;-74
2022/05/29 14:22:48;;;;;;;1.92;0.82;;;;;;;;;;4917602;29;20040;-74
2022/05/29 14:25:33;;;;;;;4.13;0.80;;;;;;;;;;4921507;29;20040;-74
2022/05/29 14:28:05;;;;;;;2.60;1.00;;;;;;;;;;4935738;29;20533;-74
2022/05/29 14:30:46;;;;;;;3.22;0.70;;;;;;;;;;4934837;29;20499;-74
2022/05/29 14:33:32;;;;;;;1.55;1.00;;;;;;;;;;4918985;29;20043;-74
2022/05/29 14:36:07;;;;;;;1.95;1.05;;;;;;;;;;4916221;29;20115;-74
2022/05/29 14:38:39;;;;;;;4.00;0.93;;;;;;;;;;4917249;29;20096;-73
2022/05/29 14:41:16;;;;;;;4.72;1.08;;;;;;;;;;4918099;29;20078;-74
2022/05/29 14:43:42;;;;;;;4.32;1.05;;;;;;;;;;4925794;29;20048;-74
2022/05/29 14:46:29;;;;;;;1.02;0.60;;;;;;;;;;4933389;29;20040;-74
2022/05/29 14:48:58;;;;;;;3.20;1.10;;;;;;;;;;4922633;29;20055;-74
2022/05/29 14:51:44;;;;;;;1.80;0.82;;;;;;;;;;4927530;29;20119;-74
2022/05/29 14:54:16;;;;;;;2.42;0.93;;;;;;;;;;4917308;29;20052;-74
2022/05/29 14:56:51;;;;;;;4.90;1.02;;;;;;;;;;4919138;29;20040;-74
2022/05/29 14:59:19;;;;;;;3.15;0.90;;;;;;;;;;4917393;29;20056;-75
2022/05/29 15:01:46;;;;;;;2.65;1.00;;;;;;;;;;4917304;29;20149;-74
2022/05/29 15:04:13;;;;;;;4.13;1.08;;;;;;;;;;4936262;29;20091;-73
2022/05/29 15:12:23;;;;;;;3.85;1.00;;;;;;;;;;4926549;29;20074;-73
2022/05/29 15:15:04;;;;;;;3.75;1.00;;;;;;;;;;4937607;29;20042;-74
2022/05/29 15:17:30;;;;;;;2.58;0.68;;;;;;;;;;4930114;29;20051;-74
2022/05/29 15:25:25;;;;;;;3.67;0.90;;;;;;;;;;4920046;29;20063;-73
2022/05/29 15:27:58;;;;;;;3.28;0.90;;;;;;;;;;4933569;29;20078;-73
2022/05/29 15:30:25;;;;;;;1.38;0.65;;;;;;;;;;4939110;29;20036;-73
2022/05/29 15:32:57;;;;;;;1.80;0.98;;;;;;;;;;4931999;29;20508;-73
2022/05/29 15:35:33;;;;;;;1.75;0.70;;;;;;;;;;4926961;29;20050;-73
2022/05/29 15:38:05;;;;;;;2.35;0.75;;;;;;;;;;4920457;29;20048;-73
2022/05/29 15:40:50;;;;;;;2.00;0.85;;;;;;;;;;4922573;29;20052;-73
2022/05/29 15:43:24;;;;;;;0.68;0.52;;;;;;;;;;4934876;29;20056;-73
2022/05/29 15:46:13;;;;;;;2.85;0.80;;;;;;;;;;4929203;29;20054;-72
2022/05/29 15:48:54;;;;;;;4.00;0.70;;;;;;;;;;4897530;29;20047;-72
2022/05/29 15:51:33;;;;;;;6.15;1.02;;;;;;;;;;4938197;29;20047;-75
2022/05/29 15:54:14;;;;;;;3.75;0.70;;;;;;;;;;4938694;29;20044;-73
2022/05/29 15:56:48;;;;;;;2.25;0.70;;;;;;;;;;4937435;29;20554;-73
2022/05/29 15:59:30;;;;;;;2.05;0.75;;;;;;;;;;4937597;29;20196;-73